createdAt,value
2022-08-08T00:00:53.737Z,13.84
2022-08-08T00:03:56.968Z,13.80
2022-08-08T00:06:53.053Z,13.80
2022-08-08T00:09:58.024Z,13.80
2022-08-08T00:12:39.907Z,13.80
2022-08-08T00:15:57.389Z,13.80
2022-08-08T00:19:29.829Z,13.70
2022-08-08T00:22:10.597Z,13.70
2022-08-08T00:24:50.361Z,13.70
2022-08-08T00:27:20.991Z,13.70
2022-08-08T00:30:01.013Z,13.70
2022-08-08T00:33:08.192Z,13.62
2022-08-08T00:35:48.034Z,13.60
2022-08-08T00:38:55.880Z,13.70
2022-08-08T00:42:31.489Z,13.70
2022-08-08T00:45:39.700Z,13.70
2022-08-08T00:49:02.853Z,13.68
2022-08-08T00:52:20.230Z,13.60
2022-08-08T00:55:53.010Z,13.64
2022-08-08T00:59:12.682Z,13.62
2022-08-08T01:03:59.343Z,13.60
2022-08-08T01:05:59.795Z,13.70
2022-08-08T01:09:00.891Z,13.70
2022-08-08T01:12:12.709Z,13.70
2022-08-08T01:15:44.022Z,13.70
2022-08-08T01:18:52.835Z,13.60
2022-08-08T01:22:23.674Z,13.70
2022-08-08T01:26:11.801Z,13.60
2022-08-08T01:29:24.121Z,13.60
2022-08-08T01:32:50.160Z,13.60
2022-08-08T01:35:40.459Z,13.60
2022-08-08T01:38:53.210Z,13.60
2022-08-08T01:41:34.281Z,13.60
2022-08-08T01:44:50.604Z,13.70
2022-08-08T01:48:16.089Z,13.70
2022-08-08T01:52:41.349Z,13.60
2022-08-08T01:55:26.313Z,13.60
2022-08-08T01:58:38.566Z,13.60
2022-08-08T02:02:00.690Z,13.60
2022-08-08T02:04:55.624Z,13.60
2022-08-08T02:07:41.556Z,13.50
2022-08-08T02:10:59.661Z,13.50
2022-08-08T02:13:56.932Z,13.58
2022-08-08T02:17:04.038Z,13.60
2022-08-08T02:20:07.967Z,13.56
2022-08-08T02:23:19.079Z,13.50
2022-08-08T02:26:12.661Z,13.50
2022-08-08T02:29:00.498Z,13.50
2022-08-08T02:32:05.002Z,13.40
2022-08-08T02:35:11.171Z,13.40
2022-08-08T02:38:25.342Z,13.40
2022-08-08T02:41:59.657Z,13.40
2022-08-08T02:45:18.859Z,13.30
2022-08-08T02:48:25.952Z,13.20
2022-08-08T02:51:55.496Z,13.30
2022-08-08T02:55:19.714Z,13.30
2022-08-08T02:58:43.536Z,13.30
2022-08-08T03:01:50.440Z,13.40
2022-08-08T03:05:17.852Z,13.40
2022-08-08T03:08:22.240Z,13.40
2022-08-08T03:12:02.566Z,13.40
2022-08-08T03:15:59.454Z,13.30
2022-08-08T03:18:31.206Z,13.22
2022-08-08T03:21:10.023Z,13.20
2022-08-08T03:23:57.583Z,13.26
2022-08-08T03:26:32.782Z,13.30
2022-08-08T03:29:21.054Z,13.36
2022-08-08T03:32:15.713Z,13.40
2022-08-08T03:34:55.244Z,13.50
2022-08-08T03:38:54.150Z,13.60
2022-08-08T03:40:29.270Z,13.74
2022-08-08T03:43:15.643Z,13.82
2022-08-08T03:46:07.099Z,13.90
2022-08-08T03:49:09.379Z,13.90
2022-08-08T03:51:40.132Z,13.92
2022-08-08T03:54:15.563Z,14.00
2022-08-08T03:57:00.234Z,14.16
2022-08-08T04:00:02.611Z,14.40
2022-08-08T04:02:47.679Z,14.60
2022-08-08T04:05:32.007Z,14.80
2022-08-08T04:08:10.058Z,14.94
2022-08-08T04:10:42.350Z,15.10
2022-08-08T04:13:18.189Z,15.30
2022-08-08T04:16:04.034Z,15.50
2022-08-08T04:18:44.803Z,15.66
2022-08-08T04:21:24.024Z,15.82
2022-08-08T04:24:12.280Z,16.04
2022-08-08T04:26:59.597Z,16.18
2022-08-08T04:29:36.980Z,16.20
2022-08-08T04:32:30.411Z,16.10
2022-08-08T04:35:01.210Z,16.02
2022-08-08T04:37:40.275Z,16.02
2022-08-08T04:40:17.805Z,16.06
2022-08-08T04:42:56.858Z,16.10
2022-08-08T04:45:44.272Z,16.20
2022-08-08T04:48:17.406Z,16.30
2022-08-08T04:50:51.819Z,16.40
2022-08-08T04:54:37.201Z,16.50
2022-08-08T04:56:24.235Z,16.58
2022-08-08T04:58:53.173Z,16.60
2022-08-08T05:01:22.375Z,16.70
2022-08-08T05:04:11.202Z,16.78
2022-08-08T05:06:44.417Z,16.80
2022-08-08T05:09:16.052Z,16.92
2022-08-08T05:11:47.766Z,17.00
2022-08-08T05:14:26.714Z,17.08
2022-08-08T05:17:01.921Z,17.00
2022-08-08T05:20:11.495Z,17.10
2022-08-08T05:22:34.479Z,17.28
2022-08-08T05:25:04.975Z,17.40
2022-08-08T05:27:41.643Z,17.54
2022-08-08T05:30:16.151Z,17.70
2022-08-08T05:32:49.461Z,17.80
2022-08-08T05:35:24.117Z,17.90
2022-08-08T05:38:21.969Z,18.00
2022-08-08T05:40:59.370Z,18.10
2022-08-08T05:43:39.545Z,18.10
2022-08-08T05:46:24.646Z,18.20
2022-08-08T05:48:56.248Z,18.30
2022-08-08T05:51:48.216Z,18.30
2022-08-08T05:54:50.296Z,18.36
2022-08-08T05:57:57.510Z,18.38
2022-08-08T06:00:22.773Z,18.40
2022-08-08T06:03:17.370Z,18.54
2022-08-08T06:06:01.621Z,18.68
2022-08-08T06:09:00.384Z,18.76
2022-08-08T06:11:48.379Z,18.70
2022-08-08T06:14:21.094Z,18.76
2022-08-08T06:16:52.064Z,18.70
2022-08-08T06:19:40.069Z,18.70
2022-08-08T06:25:02.900Z,18.60
2022-08-08T06:27:56.509Z,18.60
2022-08-08T06:30:29.020Z,18.70
2022-08-08T06:33:02.181Z,18.90
2022-08-08T06:36:06.111Z,19.00
2022-08-08T06:38:28.695Z,19.10
2022-08-08T06:41:15.337Z,19.10
2022-08-08T06:43:57.250Z,19.10
2022-08-08T06:46:31.495Z,19.10
2022-08-08T06:49:01.653Z,19.00
2022-08-08T06:51:49.084Z,19.00
2022-08-08T06:54:25.590Z,19.00
2022-08-08T06:56:55.395Z,19.00
2022-08-08T06:59:27.110Z,19.06
2022-08-08T07:02:21.400Z,19.26
2022-08-08T07:05:07.131Z,19.40
2022-08-08T07:08:07.470Z,19.54
2022-08-08T07:10:47.630Z,19.70
2022-08-08T07:13:20.167Z,19.66
2022-08-08T07:16:14.191Z,19.78
2022-08-08T07:19:33.081Z,19.90
2022-08-08T07:22:12.004Z,20.08
2022-08-08T07:24:56.706Z,20.10
2022-08-08T07:27:35.558Z,20.20
2022-08-08T07:30:25.815Z,20.30
2022-08-08T07:32:59.396Z,20.50
2022-08-08T07:35:31.489Z,20.60
2022-08-08T07:38:10.186Z,20.80
2022-08-08T07:41:04.688Z,20.90
2022-08-08T07:43:38.032Z,21.00
2022-08-08T07:46:23.642Z,21.10
2022-08-08T07:48:57.060Z,21.30
2022-08-08T07:51:44.991Z,21.36
2022-08-08T07:54:52.576Z,21.40
2022-08-08T07:57:49.981Z,21.50
2022-08-08T08:00:20.401Z,21.56
2022-08-08T08:03:43.849Z,21.70
2022-08-08T08:06:21.780Z,21.90
2022-08-08T08:09:22.459Z,22.04
2022-08-08T08:12:31.611Z,22.00
2022-08-08T08:15:10.789Z,22.20
2022-08-08T08:17:49.095Z,22.30
2022-08-08T08:20:30.653Z,22.30
2022-08-08T08:23:03.876Z,22.20
2022-08-08T08:25:43.761Z,22.10
2022-08-08T08:28:24.237Z,22.22
2022-08-08T08:31:10.100Z,22.30
2022-08-08T08:34:21.371Z,22.40
2022-08-08T08:36:54.858Z,22.30
2022-08-08T08:40:00.024Z,22.30
2022-08-08T08:42:19.352Z,22.44
2022-08-08T08:45:00.869Z,22.70
2022-08-08T08:47:44.013Z,22.84
2022-08-08T08:50:19.340Z,22.90
2022-08-08T08:53:54.482Z,22.80
2022-08-08T08:56:24.290Z,22.90
2022-08-08T08:59:05.262Z,23.04
2022-08-08T09:01:45.644Z,23.20
2022-08-08T09:04:57.499Z,23.06
2022-08-08T09:08:18.230Z,23.00
2022-08-08T09:11:24.731Z,23.00
2022-08-08T09:14:04.959Z,23.10
2022-08-08T09:16:36.592Z,23.08
2022-08-08T09:19:11.669Z,22.88
2022-08-08T09:22:01.171Z,22.70
2022-08-08T09:24:40.148Z,22.94
2022-08-08T09:27:20.914Z,23.20
2022-08-08T09:30:14.599Z,23.22
2022-08-08T09:33:55.561Z,23.30
2022-08-08T09:35:51.203Z,23.30
2022-08-08T09:38:54.209Z,23.30
2022-08-08T09:42:14.008Z,23.16
2022-08-08T09:45:15.817Z,23.00
2022-08-08T09:48:16.135Z,23.30
2022-08-08T09:50:56.050Z,23.50
2022-08-08T09:54:06.714Z,23.60
2022-08-08T09:56:40.096Z,23.40
2022-08-08T09:59:53.274Z,23.50
2022-08-08T10:02:12.717Z,23.40
2022-08-08T10:04:48.012Z,23.40
2022-08-08T10:07:17.608Z,23.50
2022-08-08T10:10:00.175Z,23.62
2022-08-08T10:13:15.624Z,23.80
2022-08-08T10:16:00.310Z,24.02
2022-08-08T10:18:37.270Z,24.20
2022-08-08T10:21:26.184Z,24.50
2022-08-08T10:24:38.066Z,24.70
2022-08-08T10:27:13.031Z,24.80
2022-08-08T10:30:00.626Z,24.80
2022-08-08T10:32:48.598Z,24.90
2022-08-08T10:36:12.546Z,25.10
2022-08-08T10:38:24.805Z,25.20
2022-08-08T10:40:56.308Z,25.30
2022-08-08T10:43:40.323Z,25.36
2022-08-08T10:46:30.274Z,25.40
2022-08-08T10:49:00.053Z,25.40
2022-08-08T10:51:47.486Z,25.50
2022-08-08T10:54:28.874Z,25.68
2022-08-08T10:57:03.817Z,25.90
2022-08-08T10:59:39.784Z,26.00
2022-08-08T11:02:10.969Z,26.10
2022-08-08T11:05:23.103Z,25.90
2022-08-08T11:08:38.466Z,25.52
2022-08-08T11:12:05.798Z,25.40
2022-08-08T11:14:27.880Z,24.86
2022-08-08T11:16:57.173Z,24.58
2022-08-08T11:19:31.776Z,24.20
2022-08-08T11:22:27.432Z,24.28
2022-08-08T11:25:14.494Z,24.50
2022-08-08T11:27:51.404Z,24.40
2022-08-08T11:30:27.444Z,24.30
2022-08-08T11:33:05.371Z,24.00
2022-08-08T11:35:45.217Z,23.76
2022-08-08T11:38:39.569Z,23.70
2022-08-08T11:41:11.895Z,23.70
2022-08-08T11:43:54.709Z,23.86
2022-08-08T11:46:31.366Z,24.10
2022-08-08T11:49:17.208Z,24.30
2022-08-08T11:52:07.825Z,24.56
2022-08-08T11:54:56.833Z,24.40
2022-08-08T11:57:35.363Z,24.40
2022-08-08T12:00:10.409Z,24.40
2022-08-08T12:02:57.770Z,24.42
2022-08-08T12:05:41.868Z,24.20
2022-08-08T12:08:12.578Z,24.08
2022-08-08T12:11:08.391Z,24.00
2022-08-08T12:14:03.859Z,24.10
2022-08-08T12:16:43.463Z,24.40
2022-08-08T12:19:31.478Z,24.80
2022-08-08T12:22:13.255Z,25.10
2022-08-08T12:24:54.071Z,25.30
2022-08-08T12:27:45.343Z,25.40
2022-08-08T12:30:18.612Z,25.50
2022-08-08T12:33:02.542Z,25.50
2022-08-08T12:35:52.338Z,25.60
2022-08-08T12:39:06.745Z,25.80
2022-08-08T12:41:56.705Z,25.80
2022-08-08T12:44:32.545Z,25.90
2022-08-08T12:50:11.901Z,25.54
2022-08-08T12:52:55.786Z,25.12
2022-08-08T12:56:04.217Z,24.90
2022-08-08T12:58:54.209Z,24.70
2022-08-08T13:01:38.587Z,24.40
2022-08-08T13:04:18.380Z,24.46
2022-08-08T13:07:16.549Z,24.70
2022-08-08T13:10:46.114Z,25.00
2022-08-08T13:13:37.742Z,25.12
2022-08-08T13:16:25.613Z,25.00
2022-08-08T13:19:20.155Z,24.80
2022-08-08T13:22:05.273Z,24.70
2022-08-08T13:24:49.167Z,24.68
2022-08-08T13:27:30.011Z,24.66
2022-08-08T13:30:20.942Z,24.70
2022-08-08T13:33:02.349Z,24.82
2022-08-08T13:35:39.572Z,25.00
2022-08-08T13:38:17.765Z,25.10
2022-08-08T13:40:55.817Z,25.20
2022-08-08T13:43:30.846Z,25.20
2022-08-08T13:46:27.469Z,25.30
2022-08-08T13:49:12.122Z,25.50
2022-08-08T13:52:37.761Z,25.62
2022-08-08T13:55:28.094Z,25.56
2022-08-08T13:58:36.874Z,25.28
2022-08-08T14:01:23.362Z,25.00
2022-08-08T14:04:37.736Z,24.88
2022-08-08T14:07:23.730Z,24.80
2022-08-08T14:10:16.924Z,24.80
2022-08-08T14:12:51.646Z,24.80
2022-08-08T14:15:39.451Z,24.90
2022-08-08T14:18:35.789Z,25.10
2022-08-08T14:21:51.982Z,25.10
2022-08-08T14:24:37.281Z,24.88
2022-08-08T14:28:00.120Z,24.70
2022-08-08T14:30:38.724Z,24.36
2022-08-08T14:33:34.082Z,24.20
2022-08-08T14:36:11.452Z,24.10
2022-08-08T14:38:58.607Z,24.08
2022-08-08T14:41:53.536Z,24.20
2022-08-08T14:44:35.281Z,24.48
2022-08-08T14:47:36.023Z,24.66
2022-08-08T14:50:40.832Z,24.80
2022-08-08T14:53:15.630Z,24.90
2022-08-08T14:55:45.987Z,24.90
2022-08-08T14:58:16.840Z,24.90
2022-08-08T15:00:50.534Z,25.00
2022-08-08T15:03:24.235Z,25.10
2022-08-08T15:05:59.454Z,25.10
2022-08-08T15:08:54.687Z,25.10
2022-08-08T15:11:29.096Z,25.20
2022-08-08T15:14:18.616Z,25.28
2022-08-08T15:17:08.509Z,25.30
2022-08-08T15:19:52.930Z,25.36
2022-08-08T15:22:34.910Z,25.30
2022-08-08T15:25:08.592Z,25.20
2022-08-08T15:28:33.817Z,25.10
2022-08-08T15:31:04.336Z,24.80
2022-08-08T15:33:38.286Z,24.54
2022-08-08T15:36:28.681Z,24.50
2022-08-08T15:39:00.783Z,24.60
2022-08-08T15:41:43.722Z,24.60
2022-08-08T15:44:19.085Z,24.60
2022-08-08T15:46:51.037Z,24.60
2022-08-08T15:49:21.260Z,24.60
2022-08-08T15:51:54.718Z,24.60
2022-08-08T15:54:38.997Z,24.50
2022-08-08T15:57:12.347Z,24.56
2022-08-08T16:00:05.721Z,24.50
2022-08-08T16:02:44.463Z,24.40
2022-08-08T16:05:35.857Z,24.40
2022-08-08T16:08:20.102Z,24.40
2022-08-08T16:13:09.108Z,24.40
2022-08-08T16:13:49.347Z,24.40
2022-08-08T16:16:23.570Z,24.40
2022-08-08T16:19:03.012Z,24.40
2022-08-08T16:21:33.876Z,24.30
2022-08-08T16:24:13.781Z,24.30
2022-08-08T16:26:43.343Z,24.40
2022-08-08T16:29:16.237Z,24.40
2022-08-08T16:31:48.951Z,24.58
2022-08-08T16:34:21.233Z,24.92
2022-08-08T16:36:51.186Z,25.62
2022-08-08T16:40:00.324Z,27.18
2022-08-08T16:42:17.863Z,28.34
2022-08-08T16:44:54.700Z,29.62
2022-08-08T16:47:39.840Z,30.82
2022-08-08T16:50:16.134Z,31.88
2022-08-08T16:55:00.749Z,32.74
2022-08-08T16:55:55.100Z,33.30
2022-08-08T16:58:31.670Z,33.90
2022-08-08T17:01:11.564Z,34.50
2022-08-08T17:04:00.145Z,34.02
2022-08-08T17:06:39.808Z,32.08
2022-08-08T17:09:23.123Z,30.58
2022-08-08T17:11:55.625Z,29.36
2022-08-08T17:14:34.230Z,28.44
2022-08-08T17:17:05.144Z,27.62
2022-08-08T17:19:37.460Z,26.94
2022-08-08T17:22:12.469Z,26.36
2022-08-08T17:24:41.742Z,25.76
2022-08-08T17:27:12.214Z,25.26
2022-08-08T17:29:43.501Z,24.80
2022-08-08T17:32:28.939Z,24.46
2022-08-08T17:35:54.527Z,24.10
2022-08-08T17:37:58.203Z,23.80
2022-08-08T17:40:28.319Z,23.60
2022-08-08T17:42:58.359Z,23.40
2022-08-08T17:45:28.381Z,23.20
2022-08-08T17:48:21.093Z,23.06
2022-08-08T17:51:06.065Z,22.90
2022-08-08T17:53:43.702Z,22.70
2022-08-08T17:56:19.356Z,22.60
2022-08-08T17:58:55.336Z,22.40
2022-08-08T18:01:57.285Z,22.30
2022-08-08T18:04:31.221Z,22.20
2022-08-08T18:07:04.736Z,22.10
2022-08-08T18:09:54.068Z,21.94
2022-08-08T18:12:24.205Z,21.80
2022-08-08T18:14:53.340Z,21.70
2022-08-08T18:18:09.164Z,21.60
2022-08-08T18:20:44.165Z,21.50
2022-08-08T18:23:12.484Z,21.46
2022-08-08T18:25:47.330Z,21.40
2022-08-08T18:28:16.366Z,21.30
2022-08-08T18:30:53.189Z,21.20
2022-08-08T18:34:12.451Z,21.10
2022-08-08T18:36:22.851Z,21.00
2022-08-08T18:38:52.832Z,20.90
2022-08-08T18:41:51.120Z,20.82
2022-08-08T18:44:13.451Z,20.80
2022-08-08T18:46:55.636Z,20.70
2022-08-08T18:49:32.595Z,20.60
2022-08-08T18:52:18.347Z,20.50
2022-08-08T18:55:00.844Z,20.30
2022-08-08T18:57:42.390Z,20.20
2022-08-08T19:00:19.916Z,20.10
2022-08-08T19:02:55.619Z,20.10
2022-08-08T19:05:34.574Z,20.00
2022-08-08T19:08:24.708Z,19.96
2022-08-08T19:11:01.310Z,19.80
2022-08-08T19:13:38.430Z,19.70
2022-08-08T19:16:28.234Z,19.60
2022-08-08T19:19:09.641Z,19.60
2022-08-08T19:21:49.187Z,19.50
2022-08-08T19:24:39.358Z,19.48
2022-08-08T19:27:19.193Z,19.40
2022-08-08T19:30:24.113Z,19.30
2022-08-08T19:33:00.407Z,19.30
2022-08-08T19:35:45.266Z,19.20
2022-08-08T19:38:21.938Z,19.20
2022-08-08T19:40:55.616Z,19.10
2022-08-08T19:43:28.583Z,19.10
2022-08-08T19:46:01.125Z,19.02
2022-08-08T19:48:32.012Z,19.00
2022-08-08T19:51:01.494Z,18.90
2022-08-08T19:53:50.968Z,18.80
2022-08-08T19:56:25.704Z,18.80
2022-08-08T19:59:12.462Z,18.70
2022-08-08T20:02:01.480Z,18.60
2022-08-08T20:04:35.110Z,18.60
2022-08-08T20:08:27.152Z,18.50
2022-08-08T20:09:57.144Z,18.50
2022-08-08T20:12:32.840Z,18.40
2022-08-08T20:15:14.642Z,18.30
2022-08-08T20:17:47.666Z,18.28
2022-08-08T20:20:19.445Z,18.20
2022-08-08T20:22:54.286Z,18.20
2022-08-08T20:25:26.487Z,18.20
2022-08-08T20:28:07.920Z,18.20
2022-08-08T20:30:55.822Z,18.20
2022-08-08T20:35:58.169Z,18.20
2022-08-08T20:38:32.852Z,18.20
2022-08-08T20:41:05.554Z,18.20
2022-08-08T20:43:49.663Z,18.12
2022-08-08T20:46:25.416Z,18.10
2022-08-08T20:48:59.866Z,18.10
2022-08-08T20:51:31.614Z,18.10
2022-08-08T20:54:03.606Z,18.10
2022-08-08T20:57:17.086Z,18.10
2022-08-08T20:59:32.765Z,18.00
2022-08-08T21:02:12.455Z,18.00
2022-08-08T21:04:43.964Z,18.00
2022-08-08T21:07:46.885Z,17.90
2022-08-08T21:10:13.432Z,17.90
2022-08-08T21:12:44.439Z,17.90
2022-08-08T21:16:04.909Z,17.90
2022-08-08T21:18:42.434Z,17.90
2022-08-08T21:21:20.743Z,17.80
2022-08-08T21:24:20.948Z,17.80
2022-08-08T21:26:58.893Z,17.76
2022-08-08T21:30:02.977Z,17.70
2022-08-08T21:32:25.057Z,17.70
2022-08-08T21:34:56.859Z,17.60
2022-08-08T21:37:53.664Z,17.50
2022-08-08T21:40:31.361Z,17.50
2022-08-08T21:43:10.214Z,17.40
2022-08-08T21:48:00.255Z,17.34
2022-08-08T21:48:41.541Z,17.30
2022-08-08T21:51:45.925Z,17.30
2022-08-08T21:54:34.916Z,17.30
2022-08-08T21:57:03.004Z,17.22
2022-08-08T22:00:01.439Z,17.20
2022-08-08T22:02:25.117Z,17.20
2022-08-08T22:04:55.646Z,17.20
2022-08-08T22:07:40.190Z,17.10
2022-08-08T22:10:18.364Z,17.10
2022-08-08T22:13:17.276Z,17.10
2022-08-08T22:15:58.461Z,17.10
2022-08-08T22:18:35.357Z,17.00
2022-08-08T22:21:14.235Z,17.00
2022-08-08T22:23:53.485Z,17.00
2022-08-08T22:26:29.244Z,17.00
2022-08-08T22:29:15.001Z,16.90
2022-08-08T22:32:01.391Z,16.90
2022-08-08T22:34:39.064Z,16.82
2022-08-08T22:37:28.218Z,16.80
2022-08-08T22:40:00.194Z,16.80
2022-08-08T22:42:32.139Z,16.76
2022-08-08T22:45:13.056Z,16.70
2022-08-08T22:47:47.171Z,16.70
2022-08-08T22:50:27.239Z,16.70
2022-08-08T22:54:32.761Z,16.62
2022-08-08T22:56:00.947Z,16.60
2022-08-08T22:58:34.776Z,16.60
2022-08-08T23:01:30.133Z,16.60
2022-08-08T23:03:57.003Z,16.50
2022-08-08T23:06:27.324Z,16.50
2022-08-08T23:08:59.002Z,16.50
2022-08-08T23:12:17.538Z,16.50
2022-08-08T23:14:21.120Z,16.50
2022-08-08T23:16:57.811Z,16.50
2022-08-08T23:19:32.203Z,16.50
2022-08-08T23:22:06.895Z,16.50
2022-08-08T23:24:41.367Z,16.50
2022-08-08T23:27:38.055Z,16.48
2022-08-08T23:30:09.169Z,16.40
2022-08-08T23:32:43.959Z,16.40
2022-08-08T23:35:17.277Z,16.40
2022-08-08T23:38:01.961Z,16.40
2022-08-08T23:40:33.341Z,16.38
2022-08-08T23:43:04.733Z,16.30
2022-08-08T23:49:06.939Z,16.24
2022-08-08T23:49:08.141Z,16.30
2022-08-08T23:51:42.056Z,16.20
2022-08-08T23:54:39.427Z,16.20
2022-08-08T23:56:52.964Z,16.18
2022-08-08T23:59:22.794Z,16.20
